sensor_id;sensor_type;location;lat;lon;timestamp;temperature;humidity
16315;DHT22;8266;52.150;4.768;2023-02-26T00:00:58;4.10;99.90
16315;DHT22;8266;52.150;4.768;2023-02-26T00:03:25;4.00;99.90
16315;DHT22;8266;52.150;4.768;2023-02-26T00:05:52;4.00;99.90
16315;DHT22;8266;52.150;4.768;2023-02-26T00:08:19;4.00;99.90
16315;DHT22;8266;52.150;4.768;2023-02-26T00:10:47;4.00;99.90
16315;DHT22;8266;52.150;4.768;2023-02-26T00:13:15;4.00;99.90
16315;DHT22;8266;52.150;4.768;2023-02-26T00:15:42;4.00;99.90
16315;DHT22;8266;52.150;4.768;2023-02-26T00:18:13;4.00;99.90
16315;DHT22;8266;52.150;4.768;2023-02-26T00:20:42;4.00;99.90
16315;DHT22;8266;52.150;4.768;2023-02-26T00:23:11;4.00;99.90
16315;DHT22;8266;52.150;4.768;2023-02-26T00:25:40;4.10;99.90
16315;DHT22;8266;52.150;4.768;2023-02-26T00:28:09;4.10;99.90
16315;DHT22;8266;52.150;4.768;2023-02-26T00:30:37;4.20;99.90
16315;DHT22;8266;52.150;4.768;2023-02-26T00:33:04;4.20;99.90
16315;DHT22;8266;52.150;4.768;2023-02-26T00:35:32;4.30;99.90
16315;DHT22;8266;52.150;4.768;2023-02-26T00:38:01;4.30;99.90
16315;DHT22;8266;52.150;4.768;2023-02-26T00:40:35;4.40;99.90
16315;DHT22;8266;52.150;4.768;2023-02-26T00:43:04;4.40;99.90
16315;DHT22;8266;52.150;4.768;2023-02-26T00:45:33;4.50;99.90
16315;DHT22;8266;52.150;4.768;2023-02-26T00:48:18;4.60;99.90
16315;DHT22;8266;52.150;4.768;2023-02-26T00:50:52;4.60;99.90
16315;DHT22;8266;52.150;4.768;2023-02-26T00:53:27;4.70;99.90
16315;DHT22;8266;52.150;4.768;2023-02-26T00:55:57;4.80;99.90
16315;DHT22;8266;52.150;4.768;2023-02-26T00:58:24;4.90;99.90
16315;DHT22;8266;52.150;4.768;2023-02-26T01:00:53;4.90;99.90
16315;DHT22;8266;52.150;4.768;2023-02-26T01:03:20;5.00;99.90
16315;DHT22;8266;52.150;4.768;2023-02-26T01:05:47;5.00;99.90
16315;DHT22;8266;52.150;4.768;2023-02-26T01:08:19;5.10;99.90
16315;DHT22;8266;52.150;4.768;2023-02-26T01:10:48;5.10;99.90
16315;DHT22;8266;52.150;4.768;2023-02-26T01:13:15;5.10;99.90
16315;DHT22;8266;52.150;4.768;2023-02-26T01:15:47;5.10;99.90
16315;DHT22;8266;52.150;4.768;2023-02-26T01:18:18;5.10;99.90
16315;DHT22;8266;52.150;4.768;2023-02-26T01:20:50;5.10;99.90
16315;DHT22;8266;52.150;4.768;2023-02-26T01:23:23;5.20;99.90
16315;DHT22;8266;52.150;4.768;2023-02-26T01:25:53;5.20;99.90
16315;DHT22;8266;52.150;4.768;2023-02-26T01:28:22;5.20;99.90
16315;DHT22;8266;52.150;4.768;2023-02-26T01:30:50;5.20;99.90
16315;DHT22;8266;52.150;4.768;2023-02-26T01:33:26;5.20;99.90
16315;DHT22;8266;52.150;4.768;2023-02-26T01:35:59;5.20;99.90
16315;DHT22;8266;52.150;4.768;2023-02-26T01:38:33;5.20;99.90
16315;DHT22;8266;52.150;4.768;2023-02-26T01:41:23;5.20;99.90
16315;DHT22;8266;52.150;4.768;2023-02-26T01:43:59;5.20;99.90
16315;DHT22;8266;52.150;4.768;2023-02-26T01:46:34;5.20;99.90
16315;DHT22;8266;52.150;4.768;2023-02-26T01:49:07;5.10;99.90
16315;DHT22;8266;52.150;4.768;2023-02-26T01:51:44;5.10;99.90
16315;DHT22;8266;52.150;4.768;2023-02-26T01:54:11;5.10;99.90
16315;DHT22;8266;52.150;4.768;2023-02-26T01:56:39;5.00;99.90
16315;DHT22;8266;52.150;4.768;2023-02-26T01:59:09;5.00;99.90
16315;DHT22;8266;52.150;4.768;2023-02-26T02:01:38;5.00;99.90
16315;DHT22;8266;52.150;4.768;2023-02-26T02:04:10;4.90;99.90
16315;DHT22;8266;52.150;4.768;2023-02-26T02:06:38;4.90;99.90
16315;DHT22;8266;52.150;4.768;2023-02-26T02:09:06;4.90;99.90
16315;DHT22;8266;52.150;4.768;2023-02-26T02:11:34;4.90;99.90
16315;DHT22;8266;52.150;4.768;2023-02-26T02:14:11;4.80;99.90
16315;DHT22;8266;52.150;4.768;2023-02-26T02:16:47;4.80;99.90
16315;DHT22;8266;52.150;4.768;2023-02-26T02:22:50;4.70;99.90
16315;DHT22;8266;52.150;4.768;2023-02-26T02:28:28;4.60;99.90
16315;DHT22;8266;52.150;4.768;2023-02-26T02:31:04;4.60;99.90
16315;DHT22;8266;52.150;4.768;2023-02-26T02:33:36;4.50;99.90
16315;DHT22;8266;52.150;4.768;2023-02-26T02:36:13;4.50;99.90
16315;DHT22;8266;52.150;4.768;2023-02-26T02:38:46;4.50;99.90
16315;DHT22;8266;52.150;4.768;2023-02-26T02:41:18;4.40;99.90
16315;DHT22;8266;52.150;4.768;2023-02-26T02:43:46;4.40;99.90
16315;DHT22;8266;52.150;4.768;2023-02-26T02:46:19;4.40;99.90
16315;DHT22;8266;52.150;4.768;2023-02-26T02:48:51;4.30;99.90
16315;DHT22;8266;52.150;4.768;2023-02-26T02:51:24;4.40;99.90
16315;DHT22;8266;52.150;4.768;2023-02-26T02:53:54;4.30;99.90
16315;DHT22;8266;52.150;4.768;2023-02-26T02:56:24;4.30;99.90
16315;DHT22;8266;52.150;4.768;2023-02-26T02:58:56;4.30;99.90
16315;DHT22;8266;52.150;4.768;2023-02-26T03:01:27;4.20;99.90
16315;DHT22;8266;52.150;4.768;2023-02-26T03:03:57;4.20;99.90
16315;DHT22;8266;52.150;4.768;2023-02-26T03:06:25;4.20;99.90
16315;DHT22;8266;52.150;4.768;2023-02-26T03:08:53;4.20;99.90
16315;DHT22;8266;52.150;4.768;2023-02-26T03:11:20;4.10;99.90
16315;DHT22;8266;52.150;4.768;2023-02-26T03:13:48;4.20;99.90
16315;DHT22;8266;52.150;4.768;2023-02-26T03:16:44;4.10;99.90
16315;DHT22;8266;52.150;4.768;2023-02-26T03:19:19;4.10;99.90
16315;DHT22;8266;52.150;4.768;2023-02-26T03:21:52;4.10;99.90
16315;DHT22;8266;52.150;4.768;2023-02-26T03:24:27;4.20;99.90
16315;DHT22;8266;52.150;4.768;2023-02-26T03:26:58;4.10;99.90
16315;DHT22;8266;52.150;4.768;2023-02-26T03:29:30;4.10;99.90
16315;DHT22;8266;52.150;4.768;2023-02-26T03:32:04;4.10;99.90
16315;DHT22;8266;52.150;4.768;2023-02-26T03:34:39;4.10;99.90
16315;DHT22;8266;52.150;4.768;2023-02-26T03:37:12;4.10;99.90
16315;DHT22;8266;52.150;4.768;2023-02-26T03:39:42;4.10;99.90
16315;DHT22;8266;52.150;4.768;2023-02-26T03:42:16;4.10;99.90
16315;DHT22;8266;52.150;4.768;2023-02-26T03:44:49;4.10;99.90
16315;DHT22;8266;52.150;4.768;2023-02-26T03:47:20;4.10;99.90
16315;DHT22;8266;52.150;4.768;2023-02-26T03:49:52;4.10;99.90
16315;DHT22;8266;52.150;4.768;2023-02-26T03:52:23;4.10;99.90
16315;DHT22;8266;52.150;4.768;2023-02-26T03:54:55;4.10;99.90
16315;DHT22;8266;52.150;4.768;2023-02-26T03:57:24;4.10;99.90
16315;DHT22;8266;52.150;4.768;2023-02-26T03:59:52;4.10;99.90
16315;DHT22;8266;52.150;4.768;2023-02-26T04:02:24;4.10;99.90
16315;DHT22;8266;52.150;4.768;2023-02-26T04:04:55;4.10;99.90
16315;DHT22;8266;52.150;4.768;2023-02-26T04:07:23;4.10;99.90
16315;DHT22;8266;52.150;4.768;2023-02-26T04:09:51;4.10;99.90
16315;DHT22;8266;52.150;4.768;2023-02-26T04:12:20;4.10;99.90
16315;DHT22;8266;52.150;4.768;2023-02-26T04:14:47;4.10;99.90
16315;DHT22;8266;52.150;4.768;2023-02-26T04:17:14;4.10;99.90
16315;DHT22;8266;52.150;4.768;2023-02-26T04:19:43;4.10;99.90
16315;DHT22;8266;52.150;4.768;2023-02-26T04:22:10;4.10;99.90
16315;DHT22;8266;52.150;4.768;2023-02-26T04:24:37;4.10;99.90
16315;DHT22;8266;52.150;4.768;2023-02-26T04:27:04;4.10;99.90
16315;DHT22;8266;52.150;4.768;2023-02-26T04:29:31;4.10;99.90
16315;DHT22;8266;52.150;4.768;2023-02-26T04:31:58;4.10;99.90
16315;DHT22;8266;52.150;4.768;2023-02-26T04:34:26;4.00;99.90
16315;DHT22;8266;52.150;4.768;2023-02-26T04:36:55;4.00;99.90
16315;DHT22;8266;52.150;4.768;2023-02-26T04:39:22;4.00;99.90
16315;DHT22;8266;52.150;4.768;2023-02-26T04:41:49;4.00;99.90
16315;DHT22;8266;52.150;4.768;2023-02-26T04:44:16;4.00;99.90
16315;DHT22;8266;52.150;4.768;2023-02-26T04:46:43;3.90;99.90
16315;DHT22;8266;52.150;4.768;2023-02-26T04:49:10;3.90;99.90
16315;DHT22;8266;52.150;4.768;2023-02-26T04:51:37;3.90;99.90
16315;DHT22;8266;52.150;4.768;2023-02-26T04:54:06;3.90;99.90
16315;DHT22;8266;52.150;4.768;2023-02-26T04:56:33;3.80;99.90
16315;DHT22;8266;52.150;4.768;2023-02-26T04:59:00;3.80;99.90
16315;DHT22;8266;52.150;4.768;2023-02-26T05:01:27;3.70;99.90
16315;DHT22;8266;52.150;4.768;2023-02-26T05:03:55;3.70;99.90
16315;DHT22;8266;52.150;4.768;2023-02-26T05:06:22;3.70;99.90
16315;DHT22;8266;52.150;4.768;2023-02-26T05:08:49;3.70;99.90
16315;DHT22;8266;52.150;4.768;2023-02-26T05:11:17;3.60;99.90
16315;DHT22;8266;52.150;4.768;2023-02-26T05:13:45;3.60;99.90
16315;DHT22;8266;52.150;4.768;2023-02-26T05:16:12;3.60;99.90
16315;DHT22;8266;52.150;4.768;2023-02-26T05:18:39;3.60;99.90
16315;DHT22;8266;52.150;4.768;2023-02-26T05:21:06;3.60;99.90
16315;DHT22;8266;52.150;4.768;2023-02-26T05:23:33;3.60;99.90
16315;DHT22;8266;52.150;4.768;2023-02-26T05:26:00;3.50;99.90
16315;DHT22;8266;52.150;4.768;2023-02-26T05:28:29;3.50;99.90
16315;DHT22;8266;52.150;4.768;2023-02-26T05:30:58;3.60;99.90
16315;DHT22;8266;52.150;4.768;2023-02-26T05:33:26;3.50;99.90
16315;DHT22;8266;52.150;4.768;2023-02-26T05:35:53;3.50;99.90
16315;DHT22;8266;52.150;4.768;2023-02-26T05:38:21;3.50;99.90
16315;DHT22;8266;52.150;4.768;2023-02-26T05:40:49;3.40;99.90
16315;DHT22;8266;52.150;4.768;2023-02-26T05:43:15;3.40;99.90
16315;DHT22;8266;52.150;4.768;2023-02-26T05:45:44;3.40;99.90
16315;DHT22;8266;52.150;4.768;2023-02-26T05:48:11;3.40;99.90
16315;DHT22;8266;52.150;4.768;2023-02-26T05:50:38;3.40;99.90
16315;DHT22;8266;52.150;4.768;2023-02-26T05:53:05;3.40;99.90
16315;DHT22;8266;52.150;4.768;2023-02-26T05:55:32;3.40;99.90
16315;DHT22;8266;52.150;4.768;2023-02-26T05:58:00;3.40;99.90
16315;DHT22;8266;52.150;4.768;2023-02-26T06:00:27;3.40;99.90
16315;DHT22;8266;52.150;4.768;2023-02-26T06:02:57;3.40;99.90
16315;DHT22;8266;52.150;4.768;2023-02-26T06:05:24;3.40;99.90
16315;DHT22;8266;52.150;4.768;2023-02-26T06:07:51;3.40;99.90
16315;DHT22;8266;52.150;4.768;2023-02-26T06:10:18;3.40;99.90
16315;DHT22;8266;52.150;4.768;2023-02-26T06:12:45;3.40;99.90
16315;DHT22;8266;52.150;4.768;2023-02-26T06:15:12;3.40;99.90
16315;DHT22;8266;52.150;4.768;2023-02-26T06:17:39;3.30;99.90
16315;DHT22;8266;52.150;4.768;2023-02-26T06:20:09;3.30;99.90
16315;DHT22;8266;52.150;4.768;2023-02-26T06:22:37;3.30;99.90
16315;DHT22;8266;52.150;4.768;2023-02-26T06:25:04;3.40;99.90
16315;DHT22;8266;52.150;4.768;2023-02-26T06:27:32;3.40;99.90
16315;DHT22;8266;52.150;4.768;2023-02-26T06:29:59;3.40;99.90
16315;DHT22;8266;52.150;4.768;2023-02-26T06:32:26;3.40;99.90
16315;DHT22;8266;52.150;4.768;2023-02-26T06:34:53;3.40;99.90
16315;DHT22;8266;52.150;4.768;2023-02-26T06:37:21;3.50;99.90
16315;DHT22;8266;52.150;4.768;2023-02-26T06:39:48;3.50;99.90
16315;DHT22;8266;52.150;4.768;2023-02-26T06:42:16;3.50;99.90
16315;DHT22;8266;52.150;4.768;2023-02-26T06:44:43;3.50;99.90
16315;DHT22;8266;52.150;4.768;2023-02-26T06:47:10;3.50;99.90
16315;DHT22;8266;52.150;4.768;2023-02-26T06:49:37;3.50;99.90
16315;DHT22;8266;52.150;4.768;2023-02-26T06:52:13;3.50;99.90
16315;DHT22;8266;52.150;4.768;2023-02-26T06:54:42;3.50;99.90
16315;DHT22;8266;52.150;4.768;2023-02-26T06:57:09;3.50;99.90
16315;DHT22;8266;52.150;4.768;2023-02-26T06:59:36;3.50;99.90
16315;DHT22;8266;52.150;4.768;2023-02-26T07:02:03;3.50;99.90
16315;DHT22;8266;52.150;4.768;2023-02-26T07:04:30;3.50;99.90
16315;DHT22;8266;52.150;4.768;2023-02-26T07:06:58;3.50;99.90
16315;DHT22;8266;52.150;4.768;2023-02-26T07:09:25;3.50;99.90
16315;DHT22;8266;52.150;4.768;2023-02-26T07:11:54;3.60;99.90
16315;DHT22;8266;52.150;4.768;2023-02-26T07:14:22;3.60;99.90
16315;DHT22;8266;52.150;4.768;2023-02-26T07:16:49;3.60;99.90
16315;DHT22;8266;52.150;4.768;2023-02-26T07:19:15;3.70;99.90
16315;DHT22;8266;52.150;4.768;2023-02-26T07:21:43;3.70;99.90
16315;DHT22;8266;52.150;4.768;2023-02-26T07:24:10;3.70;99.90
16315;DHT22;8266;52.150;4.768;2023-02-26T07:26:37;3.80;99.90
16315;DHT22;8266;52.150;4.768;2023-02-26T07:29:06;3.80;99.90
16315;DHT22;8266;52.150;4.768;2023-02-26T07:31:33;3.90;99.90
16315;DHT22;8266;52.150;4.768;2023-02-26T07:34:00;3.90;99.90
16315;DHT22;8266;52.150;4.768;2023-02-26T07:36:28;3.90;99.90
16315;DHT22;8266;52.150;4.768;2023-02-26T07:38:55;3.90;99.90
16315;DHT22;8266;52.150;4.768;2023-02-26T07:41:22;4.00;99.90
16315;DHT22;8266;52.150;4.768;2023-02-26T07:43:49;4.00;99.90
16315;DHT22;8266;52.150;4.768;2023-02-26T07:46:18;4.00;99.90
16315;DHT22;8266;52.150;4.768;2023-02-26T07:48:45;4.00;99.90
16315;DHT22;8266;52.150;4.768;2023-02-26T07:51:13;4.10;99.90
16315;DHT22;8266;52.150;4.768;2023-02-26T07:53:40;4.10;99.90
16315;DHT22;8266;52.150;4.768;2023-02-26T07:56:07;4.10;99.90
16315;DHT22;8266;52.150;4.768;2023-02-26T07:58:34;4.20;99.90
16315;DHT22;8266;52.150;4.768;2023-02-26T08:01:01;4.20;99.90
16315;DHT22;8266;52.150;4.768;2023-02-26T08:03:30;4.20;99.90
16315;DHT22;8266;52.150;4.768;2023-02-26T08:05:58;4.20;99.90
16315;DHT22;8266;52.150;4.768;2023-02-26T08:08:28;4.30;99.90
16315;DHT22;8266;52.150;4.768;2023-02-26T08:10:58;4.30;99.90
16315;DHT22;8266;52.150;4.768;2023-02-26T08:13:25;4.30;99.90
16315;DHT22;8266;52.150;4.768;2023-02-26T08:15:52;4.30;99.90
16315;DHT22;8266;52.150;4.768;2023-02-26T08:18:19;4.40;99.90
16315;DHT22;8266;52.150;4.768;2023-02-26T08:20:49;4.50;99.90
16315;DHT22;8266;52.150;4.768;2023-02-26T08:23:17;4.60;99.90
16315;DHT22;8266;52.150;4.768;2023-02-26T08:25:44;4.90;99.90
16315;DHT22;8266;52.150;4.768;2023-02-26T08:28:11;5.20;99.90
16315;DHT22;8266;52.150;4.768;2023-02-26T08:30:42;5.60;99.90
16315;DHT22;8266;52.150;4.768;2023-02-26T08:33:22;6.00;99.90
16315;DHT22;8266;52.150;4.768;2023-02-26T08:35:52;6.40;99.90
16315;DHT22;8266;52.150;4.768;2023-02-26T08:38:20;6.90;99.90
16315;DHT22;8266;52.150;4.768;2023-02-26T08:40:50;7.20;99.90
16315;DHT22;8266;52.150;4.768;2023-02-26T08:43:18;7.60;99.90
16315;DHT22;8266;52.150;4.768;2023-02-26T08:45:45;7.90;99.90
16315;DHT22;8266;52.150;4.768;2023-02-26T08:48:13;8.20;99.90
16315;DHT22;8266;52.150;4.768;2023-02-26T08:50:40;8.50;99.90
16315;DHT22;8266;52.150;4.768;2023-02-26T08:53:09;8.70;99.90
16315;DHT22;8266;52.150;4.768;2023-02-26T08:55:36;8.90;99.90
16315;DHT22;8266;52.150;4.768;2023-02-26T08:58:03;9.10;99.90
16315;DHT22;8266;52.150;4.768;2023-02-26T09:00:32;9.20;99.90
16315;DHT22;8266;52.150;4.768;2023-02-26T09:03:01;9.30;99.90
16315;DHT22;8266;52.150;4.768;2023-02-26T09:05:28;9.50;99.90
16315;DHT22;8266;52.150;4.768;2023-02-26T09:07:55;9.60;99.90
16315;DHT22;8266;52.150;4.768;2023-02-26T09:10:26;9.60;99.90
16315;DHT22;8266;52.150;4.768;2023-02-26T09:12:53;9.80;99.90
16315;DHT22;8266;52.150;4.768;2023-02-26T09:15:20;9.80;99.90
16315;DHT22;8266;52.150;4.768;2023-02-26T09:17:48;9.90;99.90
16315;DHT22;8266;52.150;4.768;2023-02-26T09:20:16;10.00;99.90
16315;DHT22;8266;52.150;4.768;2023-02-26T09:22:43;10.00;99.90
16315;DHT22;8266;52.150;4.768;2023-02-26T09:25:11;10.00;99.90
16315;DHT22;8266;52.150;4.768;2023-02-26T09:27:39;10.00;99.90
16315;DHT22;8266;52.150;4.768;2023-02-26T09:30:12;10.10;99.90
16315;DHT22;8266;52.150;4.768;2023-02-26T09:32:39;10.10;99.90
16315;DHT22;8266;52.150;4.768;2023-02-26T09:35:07;10.10;99.90
16315;DHT22;8266;52.150;4.768;2023-02-26T09:37:34;10.20;99.90
16315;DHT22;8266;52.150;4.768;2023-02-26T09:40:01;10.20;99.90
16315;DHT22;8266;52.150;4.768;2023-02-26T09:42:43;10.20;99.90
16315;DHT22;8266;52.150;4.768;2023-02-26T09:45:23;10.30;99.90
16315;DHT22;8266;52.150;4.768;2023-02-26T09:47:52;10.30;99.90
16315;DHT22;8266;52.150;4.768;2023-02-26T09:50:24;10.40;99.90
16315;DHT22;8266;52.150;4.768;2023-02-26T09:52:57;10.50;99.90
16315;DHT22;8266;52.150;4.768;2023-02-26T09:55:29;10.50;99.90
16315;DHT22;8266;52.150;4.768;2023-02-26T09:58:00;10.50;99.90
16315;DHT22;8266;52.150;4.768;2023-02-26T10:00:35;10.50;99.90
16315;DHT22;8266;52.150;4.768;2023-02-26T10:03:15;10.50;99.90
16315;DHT22;8266;52.150;4.768;2023-02-26T10:06:03;10.40;99.90
16315;DHT22;8266;52.150;4.768;2023-02-26T10:08:43;10.50;99.90
16315;DHT22;8266;52.150;4.768;2023-02-26T10:11:22;10.60;99.90
16315;DHT22;8266;52.150;4.768;2023-02-26T10:13:59;10.60;99.90
16315;DHT22;8266;52.150;4.768;2023-02-26T10:16:32;10.70;99.90
16315;DHT22;8266;52.150;4.768;2023-02-26T10:19:05;10.70;99.90
16315;DHT22;8266;52.150;4.768;2023-02-26T10:24:30;10.70;99.90
16315;DHT22;8266;52.150;4.768;2023-02-26T10:27:04;10.60;99.90
16315;DHT22;8266;52.150;4.768;2023-02-26T10:29:39;10.60;99.90
16315;DHT22;8266;52.150;4.768;2023-02-26T10:32:17;10.60;99.90
16315;DHT22;8266;52.150;4.768;2023-02-26T10:34:54;10.60;99.90
16315;DHT22;8266;52.150;4.768;2023-02-26T10:37:32;10.50;99.90
16315;DHT22;8266;52.150;4.768;2023-02-26T10:40:13;10.40;99.90
16315;DHT22;8266;52.150;4.768;2023-02-26T10:42:47;10.30;99.90
16315;DHT22;8266;52.150;4.768;2023-02-26T10:45:36;10.20;99.90
16315;DHT22;8266;52.150;4.768;2023-02-26T10:48:30;10.20;99.90
16315;DHT22;8266;52.150;4.768;2023-02-26T10:51:09;10.10;99.90
16315;DHT22;8266;52.150;4.768;2023-02-26T10:53:37;10.00;99.90
16315;DHT22;8266;52.150;4.768;2023-02-26T10:56:08;9.90;99.90
16315;DHT22;8266;52.150;4.768;2023-02-26T10:58:37;9.90;99.90
16315;DHT22;8266;52.150;4.768;2023-02-26T11:01:12;9.80;99.90
16315;DHT22;8266;52.150;4.768;2023-02-26T11:03:42;9.80;99.90
16315;DHT22;8266;52.150;4.768;2023-02-26T11:06:14;9.70;99.90
16315;DHT22;8266;52.150;4.768;2023-02-26T11:08:43;9.60;99.90
16315;DHT22;8266;52.150;4.768;2023-02-26T11:11:36;9.40;99.90
16315;DHT22;8266;52.150;4.768;2023-02-26T11:14:04;9.40;99.90
16315;DHT22;8266;52.150;4.768;2023-02-26T11:16:32;9.30;99.90
16315;DHT22;8266;52.150;4.768;2023-02-26T11:19:00;9.30;99.90
16315;DHT22;8266;52.150;4.768;2023-02-26T11:21:37;9.30;99.90
16315;DHT22;8266;52.150;4.768;2023-02-26T11:24:07;9.30;99.90
16315;DHT22;8266;52.150;4.768;2023-02-26T11:26:38;9.30;99.90
16315;DHT22;8266;52.150;4.768;2023-02-26T11:29:05;9.30;99.90
16315;DHT22;8266;52.150;4.768;2023-02-26T11:31:33;9.30;99.90
16315;DHT22;8266;52.150;4.768;2023-02-26T11:34:02;9.20;99.90
16315;DHT22;8266;52.150;4.768;2023-02-26T11:36:32;9.20;99.90
16315;DHT22;8266;52.150;4.768;2023-02-26T11:39:02;9.20;99.90
16315;DHT22;8266;52.150;4.768;2023-02-26T11:41:35;9.20;99.90
16315;DHT22;8266;52.150;4.768;2023-02-26T11:44:06;9.30;99.90
16315;DHT22;8266;52.150;4.768;2023-02-26T11:46:41;9.30;99.90
16315;DHT22;8266;52.150;4.768;2023-02-26T11:49:11;9.30;99.90
16315;DHT22;8266;52.150;4.768;2023-02-26T11:51:42;9.40;99.90
16315;DHT22;8266;52.150;4.768;2023-02-26T11:54:22;9.40;99.90
16315;DHT22;8266;52.150;4.768;2023-02-26T11:56:49;9.50;99.90
16315;DHT22;8266;52.150;4.768;2023-02-26T11:59:20;9.60;99.90
16315;DHT22;8266;52.150;4.768;2023-02-26T12:01:50;9.50;99.90
16315;DHT22;8266;52.150;4.768;2023-02-26T12:04:21;9.60;99.90
16315;DHT22;8266;52.150;4.768;2023-02-26T12:06:52;9.60;99.90
16315;DHT22;8266;52.150;4.768;2023-02-26T12:09:20;9.50;99.90
16315;DHT22;8266;52.150;4.768;2023-02-26T12:12:14;9.40;99.90
16315;DHT22;8266;52.150;4.768;2023-02-26T12:15:11;9.30;99.90
16315;DHT22;8266;52.150;4.768;2023-02-26T12:17:56;9.20;99.90
16315;DHT22;8266;52.150;4.768;2023-02-26T12:20:28;9.20;99.90
16315;DHT22;8266;52.150;4.768;2023-02-26T12:23:14;9.20;99.90
16315;DHT22;8266;52.150;4.768;2023-02-26T12:25:55;9.30;99.90
16315;DHT22;8266;52.150;4.768;2023-02-26T12:28:35;9.20;99.90
16315;DHT22;8266;52.150;4.768;2023-02-26T12:31:28;9.20;99.90
16315;DHT22;8266;52.150;4.768;2023-02-26T12:34:11;9.20;99.90
16315;DHT22;8266;52.150;4.768;2023-02-26T12:36:51;9.20;99.90
16315;DHT22;8266;52.150;4.768;2023-02-26T12:39:39;9.20;99.90
16315;DHT22;8266;52.150;4.768;2023-02-26T12:42:23;9.10;99.90
16315;DHT22;8266;52.150;4.768;2023-02-26T12:45:15;9.10;99.90
16315;DHT22;8266;52.150;4.768;2023-02-26T12:48:00;9.10;99.90
16315;DHT22;8266;52.150;4.768;2023-02-26T12:50:55;9.20;99.90
16315;DHT22;8266;52.150;4.768;2023-02-26T12:53:44;9.20;99.90
16315;DHT22;8266;52.150;4.768;2023-02-26T12:59:27;9.30;99.90
16315;DHT22;8266;52.150;4.768;2023-02-26T13:02:18;9.30;99.90
16315;DHT22;8266;52.150;4.768;2023-02-26T13:05:22;9.40;99.90
16315;DHT22;8266;52.150;4.768;2023-02-26T13:07:59;9.40;99.90
16315;DHT22;8266;52.150;4.768;2023-02-26T13:10:40;9.30;99.90
16315;DHT22;8266;52.150;4.768;2023-02-26T13:47:55;7.70;99.90
16315;DHT22;8266;52.150;4.768;2023-02-26T13:50:36;8.40;99.90
16315;DHT22;8266;52.150;4.768;2023-02-26T13:53:45;8.60;99.90
16315;DHT22;8266;52.150;4.768;2023-02-26T13:56:15;8.90;99.90
16315;DHT22;8266;52.150;4.768;2023-02-26T13:58:44;9.00;99.90
16315;DHT22;8266;52.150;4.768;2023-02-26T14:01:16;9.20;99.90
16315;DHT22;8266;52.150;4.768;2023-02-26T14:03:50;9.30;99.90
16315;DHT22;8266;52.150;4.768;2023-02-26T14:06:37;9.40;99.90
16315;DHT22;8266;52.150;4.768;2023-02-26T14:09:14;9.50;99.90
16315;DHT22;8266;52.150;4.768;2023-02-26T14:11:59;9.60;99.90
16315;DHT22;8266;52.150;4.768;2023-02-26T14:14:34;9.60;99.90
16315;DHT22;8266;52.150;4.768;2023-02-26T14:17:30;9.70;99.90
16315;DHT22;8266;52.150;4.768;2023-02-26T14:20:23;9.70;99.90
16315;DHT22;8266;52.150;4.768;2023-02-26T14:22:57;9.80;99.90
16315;DHT22;8266;52.150;4.768;2023-02-26T14:25:37;9.80;99.90
16315;DHT22;8266;52.150;4.768;2023-02-26T14:28:34;9.90;99.90
16315;DHT22;8266;52.150;4.768;2023-02-26T14:31:12;9.90;99.90
16315;DHT22;8266;52.150;4.768;2023-02-26T14:33:44;10.00;99.90
16315;DHT22;8266;52.150;4.768;2023-02-26T14:36:19;10.00;99.90
16315;DHT22;8266;52.150;4.768;2023-02-26T14:38:47;10.00;99.90
16315;DHT22;8266;52.150;4.768;2023-02-26T14:41:25;10.10;99.90
16315;DHT22;8266;52.150;4.768;2023-02-26T14:43:58;10.10;99.90
16315;DHT22;8266;52.150;4.768;2023-02-26T14:46:26;10.20;99.90
16315;DHT22;8266;52.150;4.768;2023-02-26T14:48:54;10.20;99.90
16315;DHT22;8266;52.150;4.768;2023-02-26T14:51:32;10.30;99.90
16315;DHT22;8266;52.150;4.768;2023-02-26T14:54:24;10.30;99.90
16315;DHT22;8266;52.150;4.768;2023-02-26T14:57:01;10.30;99.90
16315;DHT22;8266;52.150;4.768;2023-02-26T14:59:48;10.30;99.90
16315;DHT22;8266;52.150;4.768;2023-02-26T15:02:25;10.20;99.90
16315;DHT22;8266;52.150;4.768;2023-02-26T15:05:10;10.30;99.90
16315;DHT22;8266;52.150;4.768;2023-02-26T15:08:07;10.20;99.90
16315;DHT22;8266;52.150;4.768;2023-02-26T15:10:50;10.20;99.90
16315;DHT22;8266;52.150;4.768;2023-02-26T15:14:01;10.20;99.90
16315;DHT22;8266;52.150;4.768;2023-02-26T15:16:39;10.20;99.90
16315;DHT22;8266;52.150;4.768;2023-02-26T15:19:21;10.20;99.90
16315;DHT22;8266;52.150;4.768;2023-02-26T15:22:00;10.10;99.90
16315;DHT22;8266;52.150;4.768;2023-02-26T15:24:30;10.10;99.90
16315;DHT22;8266;52.150;4.768;2023-02-26T15:27:03;10.10;99.90
16315;DHT22;8266;52.150;4.768;2023-02-26T15:29:35;10.10;99.90
16315;DHT22;8266;52.150;4.768;2023-02-26T15:32:13;10.00;99.90
16315;DHT22;8266;52.150;4.768;2023-02-26T15:34:44;10.00;99.90
16315;DHT22;8266;52.150;4.768;2023-02-26T15:37:18;10.00;99.90
16315;DHT22;8266;52.150;4.768;2023-02-26T15:39:49;10.00;99.90
16315;DHT22;8266;52.150;4.768;2023-02-26T15:42:17;9.90;99.90
16315;DHT22;8266;52.150;4.768;2023-02-26T15:44:45;9.90;99.90
16315;DHT22;8266;52.150;4.768;2023-02-26T15:47:15;10.00;99.90
16315;DHT22;8266;52.150;4.768;2023-02-26T15:49:46;9.90;99.90
16315;DHT22;8266;52.150;4.768;2023-02-26T15:52:16;10.00;99.90
16315;DHT22;8266;52.150;4.768;2023-02-26T15:54:48;10.00;99.90
16315;DHT22;8266;52.150;4.768;2023-02-26T15:57:18;10.00;99.90
16315;DHT22;8266;52.150;4.768;2023-02-26T15:59:47;10.00;99.90
16315;DHT22;8266;52.150;4.768;2023-02-26T16:02:17;9.90;99.90
16315;DHT22;8266;52.150;4.768;2023-02-26T16:04:44;10.00;99.90
16315;DHT22;8266;52.150;4.768;2023-02-26T16:07:12;10.00;99.90
16315;DHT22;8266;52.150;4.768;2023-02-26T16:09:43;9.90;99.90
16315;DHT22;8266;52.150;4.768;2023-02-26T16:12:15;9.90;99.90
16315;DHT22;8266;52.150;4.768;2023-02-26T16:14:48;9.80;99.90
16315;DHT22;8266;52.150;4.768;2023-02-26T16:17:22;9.90;99.90
16315;DHT22;8266;52.150;4.768;2023-02-26T16:19:51;9.80;99.90
16315;DHT22;8266;52.150;4.768;2023-02-26T16:22:21;9.80;99.90
16315;DHT22;8266;52.150;4.768;2023-02-26T16:24:52;9.80;99.90
16315;DHT22;8266;52.150;4.768;2023-02-26T16:27:23;9.80;99.90
16315;DHT22;8266;52.150;4.768;2023-02-26T16:29:57;9.80;99.90
16315;DHT22;8266;52.150;4.768;2023-02-26T16:32:27;9.70;99.90
16315;DHT22;8266;52.150;4.768;2023-02-26T16:34:56;9.60;99.90
16315;DHT22;8266;52.150;4.768;2023-02-26T16:37:26;9.60;99.90
16315;DHT22;8266;52.150;4.768;2023-02-26T16:40:04;9.50;99.90
16315;DHT22;8266;52.150;4.768;2023-02-26T16:42:43;9.40;99.90
16315;DHT22;8266;52.150;4.768;2023-02-26T16:45:24;9.40;99.90
16315;DHT22;8266;52.150;4.768;2023-02-26T16:47:53;9.30;99.90
16315;DHT22;8266;52.150;4.768;2023-02-26T16:50:23;9.20;99.90
16315;DHT22;8266;52.150;4.768;2023-02-26T16:52:57;9.10;99.90
16315;DHT22;8266;52.150;4.768;2023-02-26T16:55:26;9.10;99.90
16315;DHT22;8266;52.150;4.768;2023-02-26T16:57:54;9.00;99.90
16315;DHT22;8266;52.150;4.768;2023-02-26T17:00:24;8.90;99.90
16315;DHT22;8266;52.150;4.768;2023-02-26T17:02:57;8.80;99.90
16315;DHT22;8266;52.150;4.768;2023-02-26T17:05:30;8.80;99.90
16315;DHT22;8266;52.150;4.768;2023-02-26T17:08:04;8.70;99.90
16315;DHT22;8266;52.150;4.768;2023-02-26T17:10:33;8.60;99.90
16315;DHT22;8266;52.150;4.768;2023-02-26T17:13:03;8.50;99.90
16315;DHT22;8266;52.150;4.768;2023-02-26T17:15:36;8.60;99.90
16315;DHT22;8266;52.150;4.768;2023-02-26T17:18:05;8.40;99.90